Observations for RENNES ST. JACQUES, France (LFRN)

LFRN 170030Z AUTO 28003KT CAVOK 14/11 Q1017 TEMPO 3000 BR   
LFRN 170000Z AUTO 30003KT CAVOK 15/12 Q1017 NOSIG   
LFRN 162330Z AUTO 32004KT CAVOK 15/11 Q1017 NOSIG   
LFRN 162300Z AUTO 32003KT CAVOK 16/10 Q1017 NOSIG   
LFRN 162230Z AUTO 32005KT CAVOK 17/10 Q1018 NOSIG   
LFRN 162200Z AUTO 31005KT CAVOK 17/09 Q1018 NOSIG   
LFRN 162130Z AUTO 30004KT CAVOK 18/09 Q1018 NOSIG   
LFRN 162100Z AUTO 33005KT CAVOK 19/08 Q1018 NOSIG   
LFRN 162030Z AUTO 35005KT 330V040 CAVOK 20/08 Q1017 NOSIG   
LFRN 162000Z AUTO 35008KT CAVOK 21/09 Q1017 NOSIG   
LFRN 161930Z AUTO 01008KT 330V040 CAVOK 23/10 Q1017 NOSIG   
LFRN 161900Z AUTO 35010KT 340V040 CAVOK 24/10 Q1017 NOSIG   
LFRN 161830Z AUTO 36009KT CAVOK 25/10 Q1017 NOSIG   
LFRN 161800Z AUTO 35010KT CAVOK 25/10 Q1017 NOSIG   
LFRN 161730Z AUTO 34010KT CAVOK 26/11 Q1017 NOSIG   
LFRN 161700Z AUTO 35009KT 310V020 CAVOK 26/12 Q1017 NOSIG   
LFRN 161630Z AUTO 33011KT 310V010 CAVOK 26/13 Q1017 NOSIG   
LFRN 161600Z AUTO 30007KT 240V330 CAVOK 28/10 Q1017 NOSIG   
LFRN 161530Z AUTO 32008KT 290V350 CAVOK 28/10 Q1017 NOSIG   
LFRN 161500Z AUTO VRB08KT CAVOK 27/10 Q1017 NOSIG   
LFRN 161430Z AUTO VRB06KT CAVOK 27/11 Q1017 NOSIG   
LFRN 161400Z AUTO 29007KT 230V330 CAVOK 28/11 Q1017 NOSIG   
LFRN 161330Z AUTO 30007KT 240V350 CAVOK 27/10 Q1018 NOSIG   
LFRN 161300Z AUTO 31006KT 240V010 CAVOK 27/10 Q1018 NOSIG   
LFRN 161230Z AUTO 33005KT 280V050 CAVOK 26/11 Q1018 NOSIG   
LFRN 161200Z AUTO 31007KT 230V360 CAVOK 26/11 Q1018 NOSIG   
LFRN 161130Z AUTO 27006KT 230V310 CAVOK 26/11 Q1018 NOSIG   
LFRN 161100Z AUTO VRB03KT CAVOK 25/12 Q1018 NOSIG   
LFRN 161030Z AUTO 35004KT 290V100 CAVOK 24/12 Q1018 NOSIG   
LFRN 161000Z AUTO 29005KT 230V360 CAVOK 23/11 Q1019 NOSIG   
LFRN 160930Z AUTO VRB03KT CAVOK 23/11 Q1019 NOSIG   
LFRN 160900Z AUTO 24003KT 200V290 CAVOK 22/12 Q1019 NOSIG   
LFRN 160830Z AUTO VRB02KT CAVOK 21/12 Q1019 NOSIG   
LFRN 160800Z AUTO 13003KT 060V200 CAVOK 19/12 Q1019 NOSIG   
LFRN 160730Z AUTO 12004KT 080V180 9999 ////// 18/12 Q1019   
LFRN 160700Z AUTO VRB03KT CAVOK 17/12 Q1019 NOSIG   
LFRN 160630Z AUTO VRB01KT CAVOK 15/12 Q1019 NOSIG   
LFRN 160600Z AUTO 26002KT CAVOK 14/12 Q1019 NOSIG   
LFRN 160530Z AUTO VRB03KT CAVOK 12/11 Q1019 NOSIG   
LFRN 160500Z AUTO VRB02KT CAVOK 12/11 Q1019 NOSIG   
LFRN 160430Z AUTO 01002KT 9999 0750 R28/P2000 R10/1000D BCFG NSC 12/11 Q1019 NOSIG  
LFRN 160400Z AUTO VRB02KT CAVOK 13/11 Q1019 NOSIG   
LFRN 160330Z AUTO 35003KT CAVOK 13/11 Q1019 NOSIG   
LFRN 160300Z AUTO 34004KT CAVOK 13/11 Q1019 NOSIG   
LFRN 160230Z AUTO 33004KT CAVOK 13/11 Q1019 NOSIG   
LFRN 160200Z AUTO 33004KT CAVOK 13/12 Q1019 NOSIG   
LFRN 160130Z AUTO 31003KT CAVOK 13/12 Q1019 NOSIG   
LFRN 160100Z AUTO 29005KT CAVOK 13/11 Q1019 NOSIG   
LFRN 160030Z AUTO 35002KT CAVOK 14/12 Q1019 NOSIG   
LFRN 160000Z AUTO 33004KT CAVOK 14/12 Q1019 NOSIG